sensor_id;sensor_type;location;lat;lon;timestamp;temperature;humidity
1411;DHT22;700;51.906;8.404;2024-01-27T00:03:24;7.30;99.90
1411;DHT22;700;51.906;8.404;2024-01-27T00:08:24;7.00;99.90
1411;DHT22;700;51.906;8.404;2024-01-27T00:13:27;7.00;99.90
1411;DHT22;700;51.906;8.404;2024-01-27T00:18:35;7.10;99.90
1411;DHT22;700;51.906;8.404;2024-01-27T00:23:38;6.90;99.90
1411;DHT22;700;51.906;8.404;2024-01-27T00:28:38;6.80;99.90
1411;DHT22;700;51.906;8.404;2024-01-27T00:33:44;6.90;99.90
1411;DHT22;700;51.906;8.404;2024-01-27T00:38:46;6.90;99.90
1411;DHT22;700;51.906;8.404;2024-01-27T00:43:47;6.80;99.90
1411;DHT22;700;51.906;8.404;2024-01-27T00:48:50;6.80;99.90
1411;DHT22;700;51.906;8.404;2024-01-27T00:53:53;6.90;99.90
1411;DHT22;700;51.906;8.404;2024-01-27T00:58:53;6.80;99.90
1411;DHT22;700;51.906;8.404;2024-01-27T01:03:56;6.70;99.90
1411;DHT22;700;51.906;8.404;2024-01-27T01:08:57;6.70;99.90
1411;DHT22;700;51.906;8.404;2024-01-27T01:13:58;6.70;99.90
1411;DHT22;700;51.906;8.404;2024-01-27T01:19:01;6.60;99.90
1411;DHT22;700;51.906;8.404;2024-01-27T01:24:01;6.40;99.90
1411;DHT22;700;51.906;8.404;2024-01-27T01:29:02;6.50;99.90
1411;DHT22;700;51.906;8.404;2024-01-27T01:34:02;6.40;99.90
1411;DHT22;700;51.906;8.404;2024-01-27T01:39:03;6.40;99.90
1411;DHT22;700;51.906;8.404;2024-01-27T01:44:06;6.40;99.90
1411;DHT22;700;51.906;8.404;2024-01-27T01:49:07;6.50;99.90
1411;DHT22;700;51.906;8.404;2024-01-27T01:54:08;6.40;99.90
1411;DHT22;700;51.906;8.404;2024-01-27T01:59:08;6.40;99.90
1411;DHT22;700;51.906;8.404;2024-01-27T02:04:11;6.50;99.90
1411;DHT22;700;51.906;8.404;2024-01-27T02:09:14;6.50;99.90
1411;DHT22;700;51.906;8.404;2024-01-27T02:14:14;6.60;99.90
1411;DHT22;700;51.906;8.404;2024-01-27T02:19:17;6.50;99.90
1411;DHT22;700;51.906;8.404;2024-01-27T02:24:20;6.50;99.90
1411;DHT22;700;51.906;8.404;2024-01-27T02:29:23;6.50;99.90
1411;DHT22;700;51.906;8.404;2024-01-27T02:34:23;6.40;99.90
1411;DHT22;700;51.906;8.404;2024-01-27T02:39:26;6.40;99.90
1411;DHT22;700;51.906;8.404;2024-01-27T02:44:27;6.50;99.90
1411;DHT22;700;51.906;8.404;2024-01-27T02:49:30;6.50;99.90
1411;DHT22;700;51.906;8.404;2024-01-27T02:54:30;6.40;99.90
1411;DHT22;700;51.906;8.404;2024-01-27T02:59:31;6.40;99.90
1411;DHT22;700;51.906;8.404;2024-01-27T03:04:31;6.30;99.90
1411;DHT22;700;51.906;8.404;2024-01-27T03:09:32;6.30;99.90
1411;DHT22;700;51.906;8.404;2024-01-27T03:14:33;6.20;99.90
1411;DHT22;700;51.906;8.404;2024-01-27T03:19:33;6.20;99.90
1411;DHT22;700;51.906;8.404;2024-01-27T03:24:34;6.30;99.90
1411;DHT22;700;51.906;8.404;2024-01-27T03:29:35;6.30;99.90
1411;DHT22;700;51.906;8.404;2024-01-27T03:34:44;6.20;99.90
1411;DHT22;700;51.906;8.404;2024-01-27T03:39:45;6.20;99.90
1411;DHT22;700;51.906;8.404;2024-01-27T03:44:46;6.20;99.90
1411;DHT22;700;51.906;8.404;2024-01-27T03:49:49;6.10;99.90
1411;DHT22;700;51.906;8.404;2024-01-27T03:54:52;6.10;99.90
1411;DHT22;700;51.906;8.404;2024-01-27T03:59:52;6.10;99.90
1411;DHT22;700;51.906;8.404;2024-01-27T04:04:53;5.90;99.90
1411;DHT22;700;51.906;8.404;2024-01-27T04:09:53;6.00;99.90
1411;DHT22;700;51.906;8.404;2024-01-27T04:14:54;6.00;99.90
1411;DHT22;700;51.906;8.404;2024-01-27T04:19:54;5.60;99.90
1411;DHT22;700;51.906;8.404;2024-01-27T04:24:57;5.20;99.90
1411;DHT22;700;51.906;8.404;2024-01-27T04:30:01;5.20;99.90
1411;DHT22;700;51.906;8.404;2024-01-27T04:35:02;5.10;99.90
1411;DHT22;700;51.906;8.404;2024-01-27T04:40:06;5.10;99.90
1411;DHT22;700;51.906;8.404;2024-01-27T04:45:07;5.20;99.90
1411;DHT22;700;51.906;8.404;2024-01-27T04:50:08;5.10;99.90
1411;DHT22;700;51.906;8.404;2024-01-27T04:55:14;5.20;99.90
1411;DHT22;700;51.906;8.404;2024-01-27T05:00:17;5.00;99.90
1411;DHT22;700;51.906;8.404;2024-01-27T05:05:20;5.00;99.90
1411;DHT22;700;51.906;8.404;2024-01-27T05:10:21;5.00;99.90
1411;DHT22;700;51.906;8.404;2024-01-27T05:15:26;5.10;99.90
1411;DHT22;700;51.906;8.404;2024-01-27T05:20:26;5.10;99.90
1411;DHT22;700;51.906;8.404;2024-01-27T05:25:29;5.30;99.90
1411;DHT22;700;51.906;8.404;2024-01-27T05:30:32;5.20;99.90
1411;DHT22;700;51.906;8.404;2024-01-27T05:35:33;5.20;99.90
1411;DHT22;700;51.906;8.404;2024-01-27T05:40:36;5.00;99.90
1411;DHT22;700;51.906;8.404;2024-01-27T05:45:37;4.90;99.90
1411;DHT22;700;51.906;8.404;2024-01-27T05:50:37;4.90;99.90
1411;DHT22;700;51.906;8.404;2024-01-27T05:55:38;4.60;99.90
1411;DHT22;700;51.906;8.404;2024-01-27T06:00:38;4.50;99.90
1411;DHT22;700;51.906;8.404;2024-01-27T06:05:39;4.50;99.90
1411;DHT22;700;51.906;8.404;2024-01-27T06:10:41;4.30;99.90
1411;DHT22;700;51.906;8.404;2024-01-27T06:15:44;4.30;99.90
1411;DHT22;700;51.906;8.404;2024-01-27T06:20:44;4.30;99.90
1411;DHT22;700;51.906;8.404;2024-01-27T06:25:45;4.40;99.90
1411;DHT22;700;51.906;8.404;2024-01-27T06:30:46;4.20;99.90
1411;DHT22;700;51.906;8.404;2024-01-27T06:35:51;4.20;99.90
1411;DHT22;700;51.906;8.404;2024-01-27T06:40:52;4.10;99.90
1411;DHT22;700;51.906;8.404;2024-01-27T06:45:52;4.00;99.90
1411;DHT22;700;51.906;8.404;2024-01-27T06:50:53;3.90;99.90
1411;DHT22;700;51.906;8.404;2024-01-27T06:55:54;3.80;99.90
1411;DHT22;700;51.906;8.404;2024-01-27T07:00:54;3.70;99.90
1411;DHT22;700;51.906;8.404;2024-01-27T07:05:58;3.80;99.90
1411;DHT22;700;51.906;8.404;2024-01-27T07:11:01;3.40;99.90
1411;DHT22;700;51.906;8.404;2024-01-27T07:16:02;3.40;99.90
1411;DHT22;700;51.906;8.404;2024-01-27T07:21:03;3.40;99.90
1411;DHT22;700;51.906;8.404;2024-01-27T07:26:04;3.60;99.90
1411;DHT22;700;51.906;8.404;2024-01-27T07:31:05;3.80;99.90
1411;DHT22;700;51.906;8.404;2024-01-27T07:36:06;4.00;99.90
1411;DHT22;700;51.906;8.404;2024-01-27T07:41:06;4.00;99.90
1411;DHT22;700;51.906;8.404;2024-01-27T07:46:09;3.80;99.90
1411;DHT22;700;51.906;8.404;2024-01-27T07:51:10;3.90;99.90
1411;DHT22;700;51.906;8.404;2024-01-27T07:56:10;4.10;99.90
1411;DHT22;700;51.906;8.404;2024-01-27T08:01:18;4.00;99.90
1411;DHT22;700;51.906;8.404;2024-01-27T08:06:29;4.40;99.90
1411;DHT22;700;51.906;8.404;2024-01-27T08:11:33;4.90;99.90
1411;DHT22;700;51.906;8.404;2024-01-27T08:16:37;5.60;99.90
1411;DHT22;700;51.906;8.404;2024-01-27T08:21:38;5.90;99.90
1411;DHT22;700;51.906;8.404;2024-01-27T08:26:41;6.20;99.90
1411;DHT22;700;51.906;8.404;2024-01-27T08:31:45;5.80;99.90
1411;DHT22;700;51.906;8.404;2024-01-27T08:36:45;6.60;99.90
1411;DHT22;700;51.906;8.404;2024-01-27T08:41:46;8.00;99.90
1411;DHT22;700;51.906;8.404;2024-01-27T08:46:47;9.00;99.90
1411;DHT22;700;51.906;8.404;2024-01-27T08:51:47;10.00;99.90
1411;DHT22;700;51.906;8.404;2024-01-27T08:56:50;10.50;99.90
1411;DHT22;700;51.906;8.404;2024-01-27T09:01:51;11.50;99.90
1411;DHT22;700;51.906;8.404;2024-01-27T09:06:54;13.40;99.90
1411;DHT22;700;51.906;8.404;2024-01-27T09:11:54;15.20;99.90
1411;DHT22;700;51.906;8.404;2024-01-27T09:16:55;17.10;99.90
1411;DHT22;700;51.906;8.404;2024-01-27T09:21:55;19.20;95.70
1411;DHT22;700;51.906;8.404;2024-01-27T09:26:56;20.40;90.80
1411;DHT22;700;51.906;8.404;2024-01-27T09:31:59;20.90;82.60
1411;DHT22;700;51.906;8.404;2024-01-27T09:37:00;21.40;79.50
1411;DHT22;700;51.906;8.404;2024-01-27T09:42:05;22.10;74.00
1411;DHT22;700;51.906;8.404;2024-01-27T09:47:07;22.50;67.90
1411;DHT22;700;51.906;8.404;2024-01-27T09:52:08;22.80;65.50
1411;DHT22;700;51.906;8.404;2024-01-27T09:57:09;23.60;62.40
1411;DHT22;700;51.906;8.404;2024-01-27T10:02:13;24.00;60.20
1411;DHT22;700;51.906;8.404;2024-01-27T10:07:14;25.90;57.40
1411;DHT22;700;51.906;8.404;2024-01-27T10:12:18;27.00;54.50
1411;DHT22;700;51.906;8.404;2024-01-27T10:17:22;27.40;52.60
1411;DHT22;700;51.906;8.404;2024-01-27T10:22:27;27.10;51.50
1411;DHT22;700;51.906;8.404;2024-01-27T10:27:27;27.00;49.10
1411;DHT22;700;51.906;8.404;2024-01-27T10:32:28;25.90;51.00
1411;DHT22;700;51.906;8.404;2024-01-27T10:37:31;24.30;51.70
1411;DHT22;700;51.906;8.404;2024-01-27T10:42:32;24.30;53.00
1411;DHT22;700;51.906;8.404;2024-01-27T10:47:33;24.30;51.50
1411;DHT22;700;51.906;8.404;2024-01-27T10:52:38;23.90;54.00
1411;DHT22;700;51.906;8.404;2024-01-27T10:57:41;25.10;52.30
1411;DHT22;700;51.906;8.404;2024-01-27T11:02:45;24.20;49.80
1411;DHT22;700;51.906;8.404;2024-01-27T11:07:47;23.40;53.30
1411;DHT22;700;51.906;8.404;2024-01-27T11:12:48;21.70;54.60
1411;DHT22;700;51.906;8.404;2024-01-27T11:17:56;20.50;56.50
1411;DHT22;700;51.906;8.404;2024-01-27T11:23:09;21.10;57.40
1411;DHT22;700;51.906;8.404;2024-01-27T11:28:14;20.10;57.60
1411;DHT22;700;51.906;8.404;2024-01-27T11:33:15;21.10;56.60
1411;DHT22;700;51.906;8.404;2024-01-27T11:38:15;20.80;57.20
1411;DHT22;700;51.906;8.404;2024-01-27T11:43:16;20.40;57.60
1411;DHT22;700;51.906;8.404;2024-01-27T11:48:17;20.60;58.80
1411;DHT22;700;51.906;8.404;2024-01-27T11:53:19;20.50;56.90
1411;DHT22;700;51.906;8.404;2024-01-27T11:58:21;20.00;58.40
1411;DHT22;700;51.906;8.404;2024-01-27T12:03:24;19.90;59.30
1411;DHT22;700;51.906;8.404;2024-01-27T12:08:25;21.10;58.00
1411;DHT22;700;51.906;8.404;2024-01-27T12:13:25;21.70;57.10
1411;DHT22;700;51.906;8.404;2024-01-27T12:18:27;20.50;57.80
1411;DHT22;700;51.906;8.404;2024-01-27T12:23:30;20.40;58.30
1411;DHT22;700;51.906;8.404;2024-01-27T12:28:31;20.50;58.30
1411;DHT22;700;51.906;8.404;2024-01-27T12:33:35;21.10;57.60
1411;DHT22;700;51.906;8.404;2024-01-27T12:38:35;20.80;56.90
1411;DHT22;700;51.906;8.404;2024-01-27T12:43:36;20.40;57.90
1411;DHT22;700;51.906;8.404;2024-01-27T12:48:39;19.60;57.70
1411;DHT22;700;51.906;8.404;2024-01-27T12:53:41;20.50;56.40
1411;DHT22;700;51.906;8.404;2024-01-27T12:58:44;20.30;56.10
1411;DHT22;700;51.906;8.404;2024-01-27T13:03:45;21.70;56.80
1411;DHT22;700;51.906;8.404;2024-01-27T13:08:48;22.40;55.10
1411;DHT22;700;51.906;8.404;2024-01-27T13:13:49;23.10;52.90
1411;DHT22;700;51.906;8.404;2024-01-27T13:18:49;23.20;52.00
1411;DHT22;700;51.906;8.404;2024-01-27T13:23:50;22.30;53.40
1411;DHT22;700;51.906;8.404;2024-01-27T13:28:53;21.30;53.40
1411;DHT22;700;51.906;8.404;2024-01-27T13:33:54;19.90;55.20
1411;DHT22;700;51.906;8.404;2024-01-27T13:38:57;20.90;55.20
1411;DHT22;700;51.906;8.404;2024-01-27T13:44:00;20.50;54.60
1411;DHT22;700;51.906;8.404;2024-01-27T13:49:06;21.70;54.70
1411;DHT22;700;51.906;8.404;2024-01-27T13:54:09;22.70;52.40
1411;DHT22;700;51.906;8.404;2024-01-27T13:59:14;23.40;50.20
1411;DHT22;700;51.906;8.404;2024-01-27T14:04:14;22.00;51.30
1411;DHT22;700;51.906;8.404;2024-01-27T14:09:15;21.80;52.80
1411;DHT22;700;51.906;8.404;2024-01-27T14:14:19;21.50;52.70
1411;DHT22;700;51.906;8.404;2024-01-27T14:19:20;21.60;53.40
1411;DHT22;700;51.906;8.404;2024-01-27T14:24:20;21.70;52.00
1411;DHT22;700;51.906;8.404;2024-01-27T14:29:23;20.50;52.40
1411;DHT22;700;51.906;8.404;2024-01-27T14:34:26;19.20;54.40
1411;DHT22;700;51.906;8.404;2024-01-27T14:39:27;19.20;55.30
1411;DHT22;700;51.906;8.404;2024-01-27T14:44:30;18.40;56.60
1411;DHT22;700;51.906;8.404;2024-01-27T14:49:33;18.10;57.00
1411;DHT22;700;51.906;8.404;2024-01-27T14:54:36;16.90;59.30
1411;DHT22;700;51.906;8.404;2024-01-27T14:59:39;16.00;61.00
1411;DHT22;700;51.906;8.404;2024-01-27T15:04:40;15.60;62.90
1411;DHT22;700;51.906;8.404;2024-01-27T15:09:40;14.80;64.20
1411;DHT22;700;51.906;8.404;2024-01-27T15:14:41;14.30;66.50
1411;DHT22;700;51.906;8.404;2024-01-27T15:19:41;13.60;68.60
1411;DHT22;700;51.906;8.404;2024-01-27T15:24:42;13.00;71.00
1411;DHT22;700;51.906;8.404;2024-01-27T15:29:48;12.70;73.50
1411;DHT22;700;51.906;8.404;2024-01-27T15:34:49;12.10;76.60
1411;DHT22;700;51.906;8.404;2024-01-27T15:39:52;11.70;79.40
1411;DHT22;700;51.906;8.404;2024-01-27T15:44:56;11.50;83.10
1411;DHT22;700;51.906;8.404;2024-01-27T15:49:56;11.40;86.40
1411;DHT22;700;51.906;8.404;2024-01-27T15:55:03;11.10;89.60
1411;DHT22;700;51.906;8.404;2024-01-27T16:00:05;10.90;91.60
1411;DHT22;700;51.906;8.404;2024-01-27T16:05:12;10.60;93.50
1411;DHT22;700;51.906;8.404;2024-01-27T16:10:13;10.40;95.80
1411;DHT22;700;51.906;8.404;2024-01-27T16:15:16;10.30;97.90
1411;DHT22;700;51.906;8.404;2024-01-27T16:20:17;10.10;99.90
1411;DHT22;700;51.906;8.404;2024-01-27T16:25:17;9.90;99.90
1411;DHT22;700;51.906;8.404;2024-01-27T16:30:18;9.80;99.90
1411;DHT22;700;51.906;8.404;2024-01-27T16:35:23;9.60;99.90
1411;DHT22;700;51.906;8.404;2024-01-27T16:40:24;9.40;99.90
1411;DHT22;700;51.906;8.404;2024-01-27T16:45:26;9.20;99.90
1411;DHT22;700;51.906;8.404;2024-01-27T16:50:33;9.20;99.90
1411;DHT22;700;51.906;8.404;2024-01-27T16:55:33;8.90;99.90
1411;DHT22;700;51.906;8.404;2024-01-27T17:00:35;8.60;99.90
1411;DHT22;700;51.906;8.404;2024-01-27T17:05:35;8.30;99.90
1411;DHT22;700;51.906;8.404;2024-01-27T17:10:39;8.30;99.90
1411;DHT22;700;51.906;8.404;2024-01-27T17:15:39;7.70;99.90
1411;DHT22;700;51.906;8.404;2024-01-27T17:20:43;7.60;99.90
1411;DHT22;700;51.906;8.404;2024-01-27T17:25:46;7.50;99.90
1411;DHT22;700;51.906;8.404;2024-01-27T17:30:46;7.40;99.90
1411;DHT22;700;51.906;8.404;2024-01-27T17:35:49;7.40;99.90
1411;DHT22;700;51.906;8.404;2024-01-27T17:40:51;7.10;99.90
1411;DHT22;700;51.906;8.404;2024-01-27T17:45:55;7.20;99.90
1411;DHT22;700;51.906;8.404;2024-01-27T17:50:56;7.10;99.90
1411;DHT22;700;51.906;8.404;2024-01-27T17:55:56;7.20;99.90
1411;DHT22;700;51.906;8.404;2024-01-27T18:01:03;6.80;99.90
1411;DHT22;700;51.906;8.404;2024-01-27T18:06:06;6.20;99.90
1411;DHT22;700;51.906;8.404;2024-01-27T18:11:07;6.10;99.90
1411;DHT22;700;51.906;8.404;2024-01-27T18:16:09;6.20;99.90
1411;DHT22;700;51.906;8.404;2024-01-27T18:21:10;6.00;99.90
1411;DHT22;700;51.906;8.404;2024-01-27T18:26:15;5.60;99.90
1411;DHT22;700;51.906;8.404;2024-01-27T18:31:16;6.00;99.90
1411;DHT22;700;51.906;8.404;2024-01-27T18:36:17;5.90;99.90
1411;DHT22;700;51.906;8.404;2024-01-27T18:41:18;5.80;99.90
1411;DHT22;700;51.906;8.404;2024-01-27T18:46:19;5.80;99.90
1411;DHT22;700;51.906;8.404;2024-01-27T18:51:19;5.60;99.90
1411;DHT22;700;51.906;8.404;2024-01-27T18:56:22;5.10;99.90
1411;DHT22;700;51.906;8.404;2024-01-27T19:01:23;5.30;99.90
1411;DHT22;700;51.906;8.404;2024-01-27T19:06:26;5.30;99.90
1411;DHT22;700;51.906;8.404;2024-01-27T19:11:26;4.60;99.90
1411;DHT22;700;51.906;8.404;2024-01-27T19:16:27;5.00;99.90
1411;DHT22;700;51.906;8.404;2024-01-27T19:21:28;5.20;99.90
1411;DHT22;700;51.906;8.404;2024-01-27T19:26:35;5.00;99.90
1411;DHT22;700;51.906;8.404;2024-01-27T19:31:38;5.10;99.90
1411;DHT22;700;51.906;8.404;2024-01-27T19:36:39;5.20;99.90
1411;DHT22;700;51.906;8.404;2024-01-27T19:41:39;5.00;99.90
1411;DHT22;700;51.906;8.404;2024-01-27T19:46:40;4.60;99.90
1411;DHT22;700;51.906;8.404;2024-01-27T19:51:43;4.80;99.90
1411;DHT22;700;51.906;8.404;2024-01-27T19:56:46;4.50;99.90
1411;DHT22;700;51.906;8.404;2024-01-27T20:01:47;4.70;99.90
1411;DHT22;700;51.906;8.404;2024-01-27T20:06:52;4.80;99.90
1411;DHT22;700;51.906;8.404;2024-01-27T20:11:56;4.20;99.90
1411;DHT22;700;51.906;8.404;2024-01-27T20:16:57;4.00;99.90
1411;DHT22;700;51.906;8.404;2024-01-27T20:21:57;4.10;99.90
1411;DHT22;700;51.906;8.404;2024-01-27T20:26:58;3.60;99.90
1411;DHT22;700;51.906;8.404;2024-01-27T20:31:59;3.80;99.90
1411;DHT22;700;51.906;8.404;2024-01-27T20:37:00;4.10;99.90
1411;DHT22;700;51.906;8.404;2024-01-27T20:42:00;3.30;99.90
1411;DHT22;700;51.906;8.404;2024-01-27T20:47:01;3.30;99.90
1411;DHT22;700;51.906;8.404;2024-01-27T20:52:02;3.30;99.90
1411;DHT22;700;51.906;8.404;2024-01-27T20:57:02;3.40;99.90
1411;DHT22;700;51.906;8.404;2024-01-27T21:02:03;3.30;99.90
1411;DHT22;700;51.906;8.404;2024-01-27T21:07:05;3.50;99.90
1411;DHT22;700;51.906;8.404;2024-01-27T21:12:06;3.60;99.90
1411;DHT22;700;51.906;8.404;2024-01-27T21:17:07;3.60;99.90
1411;DHT22;700;51.906;8.404;2024-01-27T21:22:10;3.70;99.90
1411;DHT22;700;51.906;8.404;2024-01-27T21:27:13;3.80;99.90
1411;DHT22;700;51.906;8.404;2024-01-27T21:32:13;3.90;99.90
1411;DHT22;700;51.906;8.404;2024-01-27T21:37:14;3.90;99.90
1411;DHT22;700;51.906;8.404;2024-01-27T21:42:15;3.70;99.90
1411;DHT22;700;51.906;8.404;2024-01-27T21:47:18;3.20;99.90
1411;DHT22;700;51.906;8.404;2024-01-27T21:52:21;3.10;99.90
1411;DHT22;700;51.906;8.404;2024-01-27T21:57:24;3.30;99.90
1411;DHT22;700;51.906;8.404;2024-01-27T22:02:27;3.30;99.90
1411;DHT22;700;51.906;8.404;2024-01-27T22:07:30;3.50;99.90
1411;DHT22;700;51.906;8.404;2024-01-27T22:12:33;3.50;99.90
1411;DHT22;700;51.906;8.404;2024-01-27T22:17:34;3.50;99.90
1411;DHT22;700;51.906;8.404;2024-01-27T22:22:34;3.40;99.90
1411;DHT22;700;51.906;8.404;2024-01-27T22:27:38;3.70;99.90
1411;DHT22;700;51.906;8.404;2024-01-27T22:32:39;3.40;99.90
1411;DHT22;700;51.906;8.404;2024-01-27T22:37:39;3.40;99.90
1411;DHT22;700;51.906;8.404;2024-01-27T22:42:42;2.90;99.90
1411;DHT22;700;51.906;8.404;2024-01-27T22:47:43;2.90;99.90
1411;DHT22;700;51.906;8.404;2024-01-27T22:52:49;2.50;99.90
1411;DHT22;700;51.906;8.404;2024-01-27T22:57:49;3.00;99.90
1411;DHT22;700;51.906;8.404;2024-01-27T23:02:52;2.50;99.90
1411;DHT22;700;51.906;8.404;2024-01-27T23:07:52;2.40;99.90
1411;DHT22;700;51.906;8.404;2024-01-27T23:12:53;2.50;99.90
1411;DHT22;700;51.906;8.404;2024-01-27T23:17:54;2.50;99.90
1411;DHT22;700;51.906;8.404;2024-01-27T23:22:56;2.10;99.90
1411;DHT22;700;51.906;8.404;2024-01-27T23:28:00;2.40;99.90
1411;DHT22;700;51.906;8.404;2024-01-27T23:33:02;2.10;99.90
1411;DHT22;700;51.906;8.404;2024-01-27T23:38:03;2.60;99.90
1411;DHT22;700;51.906;8.404;2024-01-27T23:43:04;2.10;99.90
1411;DHT22;700;51.906;8.404;2024-01-27T23:48:05;2.30;99.90
1411;DHT22;700;51.906;8.404;2024-01-27T23:53:06;2.40;99.90
1411;DHT22;700;51.906;8.404;2024-01-27T23:58:09;2.60;99.90
